createdAt,value
2023-08-05T00:08:42.999Z,0.80
2023-08-05T00:21:43.018Z,0.80
2023-08-05T00:34:43.029Z,0.70
2023-08-05T00:47:43.032Z,0.70
2023-08-05T01:00:43.045Z,0.90
2023-08-05T01:13:43.031Z,0.70
2023-08-05T01:26:43.037Z,0.80
2023-08-05T01:39:43.048Z,0.70
2023-08-05T01:52:43.050Z,0.70
2023-08-05T02:05:43.058Z,0.60
2023-08-05T02:18:43.050Z,0.70
2023-08-05T02:31:43.062Z,0.60
2023-08-05T02:44:43.071Z,0.70
2023-08-05T02:57:43.064Z,0.70
2023-08-05T03:10:43.057Z,0.60
2023-08-05T03:23:43.082Z,0.70
2023-08-05T03:36:43.077Z,0.60
2023-08-05T03:49:43.072Z,0.70
2023-08-05T04:02:43.105Z,0.70
2023-08-05T04:15:43.091Z,0.60
2023-08-05T04:28:43.103Z,0.70
2023-08-05T04:41:43.098Z,0.70
2023-08-05T04:54:43.092Z,0.60
2023-08-05T05:07:43.085Z,0.70
2023-08-05T05:20:43.106Z,0.60
2023-08-05T05:33:43.116Z,0.60
2023-08-05T05:46:43.126Z,0.60
2023-08-05T05:59:43.129Z,0.60
2023-08-05T06:12:43.144Z,0.50
2023-08-05T06:25:43.144Z,0.60
2023-08-05T06:38:43.151Z,0.50
2023-08-05T06:51:43.169Z,0.50
2023-08-05T07:04:43.154Z,0.60
2023-08-05T07:17:43.180Z,0.50
2023-08-05T07:30:43.155Z,0.60
2023-08-05T07:43:43.253Z,0.50
2023-08-05T07:56:43.175Z,0.70
2023-08-05T08:09:43.177Z,0.60
2023-08-05T08:22:43.219Z,0.50
2023-08-05T08:35:43.232Z,0.40
2023-08-05T08:48:43.211Z,0.40
2023-08-05T09:01:43.203Z,0.60
2023-08-05T09:14:43.225Z,0.50
2023-08-05T09:27:43.226Z,0.40
2023-08-05T09:40:43.228Z,0.40
2023-08-05T09:53:43.224Z,0.40
2023-08-05T10:06:43.235Z,0.40
2023-08-05T10:19:43.246Z,0.50
2023-08-05T10:32:43.260Z,0.40
2023-08-05T10:45:43.251Z,0.40
2023-08-05T10:58:43.234Z,0.50
2023-08-05T11:11:43.282Z,0.50
2023-08-05T11:24:43.260Z,0.40
2023-08-05T11:37:43.278Z,0.40
2023-08-05T11:50:43.258Z,0.40
2023-08-05T12:03:43.301Z,0.40
2023-08-05T12:16:43.288Z,0.40
2023-08-05T12:29:43.276Z,0.30
2023-08-05T12:42:43.288Z,0.40
2023-08-05T12:55:43.295Z,0.30
2023-08-05T13:08:43.308Z,0.40
2023-08-05T13:21:43.295Z,0.40
2023-08-05T13:34:43.300Z,0.40
2023-08-05T13:47:43.370Z,0.30
2023-08-05T14:00:43.299Z,0.30
2023-08-05T14:13:43.310Z,0.30
2023-08-05T14:26:43.299Z,0.40
2023-08-05T14:39:43.317Z,0.30
2023-08-05T14:52:43.320Z,0.30
2023-08-05T15:05:43.312Z,0.30
2023-08-05T15:18:43.320Z,0.20
2023-08-05T15:31:43.347Z,0.20
2023-08-05T15:44:43.330Z,0.40
2023-08-05T15:57:43.313Z,0.35
2023-08-05T16:10:43.333Z,0.30
2023-08-05T16:23:43.332Z,0.30
2023-08-05T16:36:43.349Z,0.30
2023-08-05T16:49:43.369Z,0.30
2023-08-05T17:02:43.397Z,0.20
2023-08-05T17:15:43.354Z,0.20
2023-08-05T17:28:43.375Z,0.30
2023-08-05T17:41:43.384Z,0.20
2023-08-05T17:54:43.373Z,0.30
2023-08-05T18:07:43.379Z,0.20
2023-08-05T18:20:43.368Z,0.20
2023-08-05T18:33:43.407Z,0.30
2023-08-05T18:46:43.397Z,0.30
2023-08-05T18:59:43.402Z,0.20
2023-08-05T19:12:43.415Z,0.20
2023-08-05T19:25:43.414Z,0.20
2023-08-05T19:38:43.411Z,0.20
2023-08-05T19:51:43.413Z,0.20
2023-08-05T20:04:43.427Z,0.20
2023-08-05T20:17:43.443Z,0.20
2023-08-05T20:30:43.464Z,0.20
2023-08-05T20:43:43.437Z,0.20
2023-08-05T20:56:43.417Z,0.20
2023-08-05T21:09:43.431Z,0.20
2023-08-05T21:22:43.452Z,0.20
2023-08-05T21:35:43.433Z,0.30
2023-08-05T21:48:43.455Z,0.30
2023-08-05T22:01:43.473Z,0.30
2023-08-05T22:14:43.476Z,0.20
2023-08-05T22:27:43.464Z,0.30
2023-08-05T22:40:43.527Z,0.20
2023-08-05T22:53:43.476Z,0.30
2023-08-05T23:06:43.497Z,0.30
2023-08-05T23:19:43.480Z,0.30
2023-08-05T23:32:43.503Z,0.20
2023-08-05T23:45:43.495Z,0.20
2023-08-05T23:58:43.485Z,0.30
